Salvamar Al Nair — EA-8267 — position and weather

sailwx.info

Track history (hours):
 
Tides and Currents Weather Stations Pressure Air Temp Water Temp Dewpoint Dewpoint Depression Visibility Wind Speed Wind Dir Waves Ship Positions

Salvamar Al Nair

Last reported at 2017-Nov-24 14:55 UTC. Time now 2017-Nov-25 07:52 UTC.
Position N 28°32' W 014°05'.

Length 21 m; draft 0.9 m.

Type: SAR. MMSI: 224944850.

Date/timePositionNaut miles runAvg speedWind from/ knotsBaromVisibWave heightAir tempDewpointWater temp
2017-Nov-24 14:55N 28°32' W 014°05'3 6.0
2017-Nov-24 14:28N 28°30' W 014°06'1 1.0
2017-Nov-24 13:58N 28°29' W 014°06'1 0.5
2017-Nov-24 12:31N 28°29' W 014°06'0 5.6
2017-Nov-24 12:26N 28°29' W 014°06'1 1.3
2017-Nov-24 11:59N 28°30' W 014°06'3 2.4
2017-Nov-24 10:41N 28°27' W 014°08'1 8.2
2017-Nov-24 10:30N 28°28' W 014°07'3 6.7
2017-Nov-24 10:00N 28°31' W 014°05'1 2.5
2017-Nov-24 09:30N 28°30' W 014°05'1 1.8
2017-Nov-24 09:00N 28°29' W 014°06'1224.4
2017-Nov-24 08:30N 28°41' W 014°03'1122.4
2017-Nov-24 08:01N 28°47' W 013°52'1122.7
2017-Nov-24 07:31N 28°52' W 013°41'72 2.2
2017-Nov-22 22:13N 29°53' W 012°56'2 7.9
2017-Nov-22 22:00N 29°55' W 012°55'4 7.8
2017-Nov-22 21:30N 29°58' W 012°53'4 7.6
2017-Nov-22 20:59N 30°01' W 012°51'4 7.5
2017-Nov-22 20:30N 30°05' W 012°49'  
2017-Nov-16 12:42N 28°58' W 013°32'0 0.0
2017-Nov-16 12:30N 28°58' W 013°32'0 0.0
2017-Nov-16 11:39N 28°58' W 013°32'0 0.0
2017-Nov-16 10:42N 28°58' W 013°32'0 0.0
2017-Nov-16 10:30N 28°58' W 013°32'0 0.0
2017-Nov-16 10:00N 28°58' W 013°32'0 0.0
2017-Nov-16 09:30N 28°58' W 013°32'0 0.0
2017-Nov-16 09:00N 28°58' W 013°32'0 0.0
2017-Nov-15 17:41N 28°58' W 013°32'0 0.0
2017-Nov-15 17:17N 28°58' W 013°32'0 0.0
2017-Nov-15 16:59N 28°58' W 013°32'0 0.0
2017-Nov-15 16:23N 28°58' W 013°32'0 0.0
2017-Nov-15 15:59N 28°58' W 013°32'0 0.0
2017-Nov-15 12:33N 28°58' W 013°32'0 0.0
2017-Nov-15 12:15N 28°58' W 013°32'0 0.0
2017-Nov-15 12:00N 28°58' W 013°32'0 0.0
2017-Nov-15 11:27N 28°58' W 013°32'0 0.0
2017-Nov-15 10:57N 28°58' W 013°32'0 0.0
2017-Nov-15 10:30N 28°58' W 013°32'0 0.0
2017-Nov-15 10:00N 28°58' W 013°32'  
Track history (hours):
 
Tides and Currents Weather Stations Pressure Air Temp Water Temp Dewpoint Dewpoint Depression Visibility Wind Speed Wind Dir Waves Ship Positions

Salvamar Al Nair

Last reported at 2017-Nov-24 14:55 UTC. Time now 2017-Nov-25 07:52 UTC.
Position N 28°32' W 014°05'.

Length 21 m; draft 0.9 m.

Type: SAR. MMSI: 224944850.

Date/timePositionNaut miles runAvg speedWind from/ knotsBaromVisibWave heightAir tempDewpointWater temp
2017-Nov-24 14:55N 28°32' W 014°05'3 6.0
2017-Nov-24 14:28N 28°30' W 014°06'1 1.0
2017-Nov-24 13:58N 28°29' W 014°06'1 0.5
2017-Nov-24 12:31N 28°29' W 014°06'0 5.6
2017-Nov-24 12:26N 28°29' W 014°06'1 1.3
2017-Nov-24 11:59N 28°30' W 014°06'3 2.4
2017-Nov-24 10:41N 28°27' W 014°08'1 8.2
2017-Nov-24 10:30N 28°28' W 014°07'3 6.7
2017-Nov-24 10:00N 28°31' W 014°05'1 2.5
2017-Nov-24 09:30N 28°30' W 014°05'1 1.8
2017-Nov-24 09:00N 28°29' W 014°06'1224.4
2017-Nov-24 08:30N 28°41' W 014°03'1122.4
2017-Nov-24 08:01N 28°47' W 013°52'1122.7
2017-Nov-24 07:31N 28°52' W 013°41'72 2.2
2017-Nov-22 22:13N 29°53' W 012°56'2 7.9
2017-Nov-22 22:00N 29°55' W 012°55'4 7.8
2017-Nov-22 21:30N 29°58' W 012°53'4 7.6
2017-Nov-22 20:59N 30°01' W 012°51'4 7.5
2017-Nov-22 20:30N 30°05' W 012°49'  
2017-Nov-16 12:42N 28°58' W 013°32'0 0.0
2017-Nov-16 12:30N 28°58' W 013°32'0 0.0
2017-Nov-16 11:39N 28°58' W 013°32'0 0.0
2017-Nov-16 10:42N 28°58' W 013°32'0 0.0
2017-Nov-16 10:30N 28°58' W 013°32'0 0.0
2017-Nov-16 10:00N 28°58' W 013°32'0 0.0
2017-Nov-16 09:30N 28°58' W 013°32'0 0.0
2017-Nov-16 09:00N 28°58' W 013°32'0 0.0
2017-Nov-15 17:41N 28°58' W 013°32'0 0.0
2017-Nov-15 17:17N 28°58' W 013°32'0 0.0
2017-Nov-15 16:59N 28°58' W 013°32'0 0.0
2017-Nov-15 16:23N 28°58' W 013°32'0 0.0
2017-Nov-15 15:59N 28°58' W 013°32'0 0.0
2017-Nov-15 12:33N 28°58' W 013°32'0 0.0
2017-Nov-15 12:15N 28°58' W 013°32'0 0.0
2017-Nov-15 12:00N 28°58' W 013°32'0 0.0
2017-Nov-15 11:27N 28°58' W 013°32'0 0.0
2017-Nov-15 10:57N 28°58' W 013°32'0 0.0
2017-Nov-15 10:30N 28°58' W 013°32'0 0.0
2017-Nov-15 10:00N 28°58' W 013°32'  

Dump ship's entire track history